Time;durP1;ratioP1;P1;durP2;ratioP2;P2;SDS_P1;SDS_P2;PMS_P1;PMS_P2;Temp;Humidity;BMP_temperature;BMP_pressure;BME280_temperature;BME280_humidity;BME280_pressure;Samples;Min_cycle;Max_cycle;Signal;HPM_P1;HPM_P2
2021/04/01 00:01:58;;;;;;;61.65;37.58;;;11.60;74.20;;;;;;5926849;32;20332;-74
2021/04/01 00:06:03;;;;;;;63.92;37.53;;;11.70;74.60;;;;;;5929793;32;20087;-73
2021/04/01 00:10:13;;;;;;;66.93;39.08;;;11.50;74.30;;;;;;5912713;32;20083;-74
2021/04/01 00:14:23;;;;;;;59.45;36.83;;;11.40;74.60;;;;;;5938519;32;20174;-73
2021/04/01 00:18:30;;;;;;;60.67;37.20;;;11.40;74.70;;;;;;5940140;32;20098;-74
2021/04/01 00:22:36;;;;;;;62.55;37.63;;;11.20;74.70;;;;;;5941477;32;20395;-73
2021/04/01 00:26:43;;;;;;;63.30;36.92;;;11.20;75.00;;;;;;5930495;32;20653;-73
2021/04/01 00:30:47;;;;;;;66.13;37.88;;;11.20;75.20;;;;;;5927460;32;20079;-72
2021/04/01 00:34:52;;;;;;;62.00;37.53;;;11.20;75.20;;;;;;5923011;32;20181;-74
2021/04/01 00:38:58;;;;;;;63.45;37.15;;;11.10;75.20;;;;;;5924357;32;20118;-73
2021/04/01 00:43:02;;;;;;;61.40;36.45;;;11.10;75.30;;;;;;5923802;40;20099;-74
2021/04/01 00:47:11;;;;;;;67.13;38.00;;;11.10;75.10;;;;;;5926924;32;20091;-74
2021/04/01 00:51:15;;;;;;;63.50;37.40;;;11.00;75.10;;;;;;5944283;32;20076;-73
2021/04/01 00:55:20;;;;;;;63.00;38.60;;;11.60;75.40;;;;;;5940382;32;20080;-73
2021/04/01 00:59:26;;;;;;;65.68;38.60;;;10.90;75.30;;;;;;5927470;32;20651;-72
2021/04/01 01:03:35;;;;;;;68.50;38.78;;;10.90;75.50;;;;;;5940293;39;20080;-71
2021/04/01 01:07:42;;;;;;;65.28;38.40;;;10.80;75.60;;;;;;5938223;32;20428;-71
2021/04/01 01:11:46;;;;;;;65.43;39.30;;;10.80;75.50;;;;;;5938220;32;20072;-72
2021/04/01 01:15:52;;;;;;;62.17;37.05;;;10.70;75.60;;;;;;5923601;32;20192;-74
2021/04/01 01:19:57;;;;;;;68.60;39.28;;;10.60;75.50;;;;;;5927122;32;20115;-73
2021/04/01 01:24:01;;;;;;;71.00;40.92;;;10.50;75.60;;;;;;5925421;32;20064;-74
2021/04/01 01:28:06;;;;;;;83.20;43.15;;;10.40;75.60;;;;;;5911498;32;22065;-72
2021/04/01 01:32:13;;;;;;;82.25;44.75;;;10.30;76.60;;;;;;5913982;32;20096;-74
2021/04/01 01:36:18;;;;;;;80.28;44.95;;;10.30;77.40;;;;;;5922599;32;20068;-74
2021/04/01 01:40:24;;;;;;;85.05;45.63;;;10.20;78.60;;;;;;5910424;32;20064;-72
2021/04/01 01:44:31;;;;;;;88.47;48.25;;;10.40;78.60;;;;;;5925689;32;20084;-74
2021/04/01 01:48:35;;;;;;;87.72;47.85;;;10.20;76.70;;;;;;5907592;32;20069;-72
2021/04/01 01:52:40;;;;;;;87.45;49.65;;;10.10;76.70;;;;;;5914763;32;20071;-72
2021/04/01 01:56:44;;;;;;;97.85;47.58;;;10.10;76.90;;;;;;5920739;32;20068;-73
2021/04/01 02:00:54;;;;;;;93.35;49.47;;;9.90;76.60;;;;;;5917666;32;20072;-72
2021/04/01 02:04:57;;;;;;;92.70;50.70;;;10.00;76.90;;;;;;5915072;32;20072;-73
2021/04/01 02:09:03;;;;;;;88.25;49.15;;;10.00;76.90;;;;;;5924078;32;20446;-73
2021/04/01 02:13:09;;;;;;;95.70;50.55;;;9.90;77.10;;;;;;5914542;32;20206;-73
2021/04/01 02:17:20;;;;;;;88.45;47.90;;;10.00;77.20;;;;;;5923715;32;21432;-73
2021/04/01 02:21:24;;;;;;;91.70;49.20;;;9.90;77.20;;;;;;5927213;32;20073;-74
2021/04/01 02:25:28;;;;;;;97.57;52.28;;;9.90;77.20;;;;;;5929752;32;20056;-73
2021/04/01 02:29:34;;;;;;;97.88;50.65;;;9.80;77.80;;;;;;5927679;32;20163;-73
2021/04/01 02:33:40;;;;;;;92.75;49.40;;;10.60;79.40;;;;;;5933550;32;20087;-74
2021/04/01 02:37:44;;;;;;;85.35;48.00;;;9.60;82.90;;;;;;5937331;32;20064;-73
2021/04/01 02:41:48;;;;;;;86.25;46.13;;;9.50;85.50;;;;;;5929345;32;20072;-73
2021/04/01 02:45:49;;;;;;;73.73;41.47;;;9.50;87.60;;;;;;5937071;32;20079;-74
2021/04/01 02:49:54;;;;;;;68.45;39.05;;;9.50;88.70;;;;;;5933045;32;20153;-73
2021/04/01 02:53:58;;;;;;;70.82;39.50;;;9.40;87.70;;;;;;5934240;32;20299;-72
2021/04/01 02:58:02;;;;;;;67.78;36.78;;;9.40;83.80;;;;;;5916226;32;20083;-73
2021/04/01 03:02:06;;;;;;;67.50;34.97;;;9.50;83.00;;;;;;5917730;32;20401;-74
2021/04/01 03:06:10;;;;;;;62.88;36.28;;;9.20;82.30;;;;;;5937446;39;20422;-73
2021/04/01 03:10:14;;;;;;;60.70;34.58;;;9.20;81.80;;;;;;5923768;32;20107;-73
2021/04/01 03:14:21;;;;;;;62.95;34.25;;;9.20;81.30;;;;;;5923540;32;20088;-73
2021/04/01 03:18:27;;;;;;;57.55;34.28;;;9.20;81.10;;;;;;5916243;32;20060;-72
2021/04/01 03:22:35;;;;;;;57.15;34.10;;;9.10;81.00;;;;;;5923794;32;20474;-73
2021/04/01 03:26:41;;;;;;;57.72;33.55;;;9.10;81.40;;;;;;5931994;32;20158;-72
2021/04/01 03:30:52;;;;;;;57.72;32.15;;;9.10;82.20;;;;;;5920173;32;20076;-72
2021/04/01 03:34:57;;;;;;;57.83;31.77;;;9.10;81.80;;;;;;5929360;39;20081;-73
2021/04/01 03:39:03;;;;;;;62.47;32.78;;;9.40;82.80;;;;;;5928733;32;25454;-72
2021/04/01 03:43:07;;;;;;;53.67;30.80;;;9.00;81.80;;;;;;5941232;32;20060;-73
2021/04/01 03:47:14;;;;;;;56.50;31.02;;;9.30;81.90;;;;;;5937718;32;20712;-72
2021/04/01 03:51:18;;;;;;;52.13;29.67;;;9.00;81.20;;;;;;5925631;32;20096;-72
2021/04/01 03:59:44;;;;;;;52.08;29.15;;;9.10;81.10;;;;;;5940722;32;20072;-73
2021/04/01 04:08:35;;;;;;;48.78;26.20;;;9.00;80.50;;;;;;5942349;32;20063;-75
2021/04/01 04:16:49;;;;;;;39.80;22.45;;;8.80;81.70;;;;;;5927671;32;20061;-73
2021/04/01 04:20:53;;;;;;;41.85;22.73;;;8.80;80.80;;;;;;5931604;32;20069;-73
2021/04/01 04:24:57;;;;;;;42.72;22.65;;;8.70;80.60;;;;;;5925582;32;20434;-73
2021/04/01 04:29:02;;;;;;;36.35;19.30;;;8.60;81.30;;;;;;5934176;40;20266;-73
2021/04/01 04:33:09;;;;;;;36.67;20.50;;;8.70;81.30;;;;;;5923184;40;20073;-73
2021/04/01 04:37:13;;;;;;;42.25;18.63;;;8.60;81.50;;;;;;5934506;32;20098;-73
2021/04/01 04:41:17;;;;;;;36.47;19.15;;;8.60;81.60;;;;;;5928432;32;20079;-73
2021/04/01 04:45:22;;;;;;;36.03;17.40;;;8.60;81.30;;;;;;5930868;32;20592;-73
2021/04/01 04:49:25;;;;;;;44.00;18.90;;;8.60;81.10;;;;;;5927010;32;20072;-73
2021/04/01 04:53:30;;;;;;;32.50;16.58;;;8.60;81.20;;;;;;5926325;32;20374;-73
2021/04/01 05:06:09;;;;;;;42.35;16.90;;;8.50;81.20;;;;;;5931111;32;20165;-73
2021/04/01 05:10:14;;;;;;;30.13;15.10;;;8.50;81.20;;;;;;5925708;32;20445;-73
2021/04/01 05:14:20;;;;;;;30.80;15.00;;;8.50;81.70;;;;;;5928464;32;20088;-73
2021/04/01 05:18:27;;;;;;;27.58;12.38;;;8.40;81.60;;;;;;5924501;32;20092;-73
2021/04/01 05:22:40;;;;;;;23.48;12.07;;;8.40;83.50;;;;;;5917590;32;20474;-72
2021/04/01 05:31:05;;;;;;;22.52;11.18;;;8.30;83.50;;;;;;5935891;32;20425;-73
2021/04/01 05:35:15;;;;;;;20.17;8.43;;;8.20;83.30;;;;;;5939776;32;20070;-73
2021/04/01 05:39:24;;;;;;;22.45;8.23;;;8.20;83.90;;;;;;5940615;32;20064;-72
2021/04/01 05:43:33;;;;;;;20.02;6.53;;;8.20;86.40;;;;;;5931086;32;20445;-73
2021/04/01 05:47:48;;;;;;;16.00;4.95;;;8.10;84.70;;;;;;5903782;32;20060;-72
2021/04/01 05:52:34;;;;;;;12.40;3.60;;;8.10;85.90;;;;;;5917315;32;20106;-72
2021/04/01 06:05:09;;;;;;;10.80;3.40;;;8.00;87.50;;;;;;5930486;32;20462;-72
2021/04/01 06:09:24;;;;;;;8.90;3.50;;;8.00;87.90;;;;;;5923215;32;20079;-72
2021/04/01 06:13:35;;;;;;;13.02;3.70;;;8.30;87.20;;;;;;5927391;32;20076;-72
2021/04/01 06:17:47;;;;;;;11.97;3.67;;;8.00;87.90;;;;;;5929753;39;20084;-71
2021/04/01 06:21:52;;;;;;;10.20;3.53;;;8.10;88.10;;;;;;5925196;32;20421;-72
2021/04/01 06:25:57;;;;;;;13.90;3.58;;;8.10;89.70;;;;;;5921863;32;20170;-71
2021/04/01 06:30:24;;;;;;;9.20;2.67;;;8.10;89.00;;;;;;5918849;32;20186;-73
2021/04/01 06:34:40;;;;;;;11.93;3.70;;;8.10;90.10;;;;;;5926852;32;20181;-72
2021/04/01 06:38:47;;;;;;;6.50;2.92;;;8.10;90.20;;;;;;5916704;32;20683;-70
2021/04/01 06:43:03;;;;;;;6.03;2.58;;;8.10;91.40;;;;;;5924025;32;20142;-69
2021/04/01 06:47:12;;;;;;;7.07;2.53;;;8.10;91.10;;;;;;5924036;32;20248;-72
2021/04/01 06:51:22;;;;;;;6.53;2.67;;;8.10;90.40;;;;;;5921482;32;20219;-70
2021/04/01 06:55:53;;;;;;;6.28;2.40;;;8.20;90.40;;;;;;5929267;32;20087;-74
2021/04/01 07:04:45;;;;;;;7.57;2.65;;;8.30;91.10;;;;;;5935913;32;20400;-73
2021/04/01 07:09:31;;;;;;;5.03;2.10;;;8.20;91.50;;;;;;5927779;32;20194;-73
2021/04/01 07:13:41;;;;;;;5.63;2.63;;;8.20;91.60;;;;;;5935730;32;20167;-73
2021/04/01 07:17:57;;;;;;;3.88;1.92;;;8.70;91.60;;;;;;5937657;32;20120;-73
2021/04/01 07:35:54;;;;;;;3.70;1.98;;;8.40;90.40;;;;;;5927330;32;20060;-73
2021/04/01 07:49:05;;;;;;;3.47;2.03;;;8.40;90.40;;;;;;5934383;32;20096;-73
2021/04/01 07:53:25;;;;;;;2.95;1.92;;;8.60;90.60;;;;;;5927677;32;20092;-71
2021/04/01 08:06:03;;;;;;;2.83;1.70;;;8.60;90.70;;;;;;5929326;32;20075;-71
2021/04/01 08:10:09;;;;;;;3.25;2.15;;;8.50;90.50;;;;;;5920417;32;20100;-71
2021/04/01 08:14:25;;;;;;;3.42;1.85;;;8.70;90.40;;;;;;5912086;32;20075;-71
2021/04/01 08:18:34;;;;;;;9.20;2.70;;;8.70;91.30;;;;;;5923735;32;25340;-70
2021/04/01 08:22:44;;;;;;;4.88;2.70;;;7.80;91.40;;;;;;5930327;32;20076;-71
2021/04/01 08:27:22;;;;;;;3.00;1.98;;;8.50;90.70;;;;;;5927815;39;20567;-66
2021/04/01 08:36:20;;;;;;;2.63;1.60;;;8.60;92.10;;;;;;5922835;32;20079;-66
2021/04/01 08:40:44;;;;;;;4.05;1.80;;;8.40;93.10;;;;;;5937876;39;20085;-69
2021/04/01 08:45:54;;;;;;;1.77;1.30;;;7.80;94.00;;;;;;5920214;32;20076;-66
2021/04/01 08:50:35;;;;;;;2.67;1.20;;;7.80;95.90;;;;;;5888075;32;20143;-68
2021/04/01 08:54:55;;;;;;;2.22;1.02;;;7.60;95.60;;;;;;5935458;32;20271;-66
2021/04/01 08:59:10;;;;;;;3.03;1.48;;;7.40;96.00;;;;;;5925217;32;20426;-67
2021/04/01 09:03:22;;;;;;;4.05;1.73;;;6.70;95.80;;;;;;5920072;32;20065;-65
2021/04/01 09:07:36;;;;;;;2.40;1.42;;;7.60;95.60;;;;;;5930105;32;20092;-66
2021/04/01 09:15:59;;;;;;;3.13;0.80;;;7.60;94.90;;;;;;5940825;32;20771;-66
2021/04/01 09:20:18;;;;;;;2.38;1.40;;;7.70;95.00;;;;;;5935539;32;20088;-66
2021/04/01 09:24:29;;;;;;;2.00;1.20;;;7.70;94.90;;;;;;5939582;32;20074;-67
2021/04/01 09:28:44;;;;;;;2.70;0.73;;;7.70;94.20;;;;;;5932178;32;20380;-67
2021/04/01 09:32:51;;;;;;;1.70;0.70;;;7.90;94.00;;;;;;5936438;32;20056;-67
2021/04/01 09:37:14;;;;;;;1.40;0.50;;;7.80;92.80;;;;;;5941155;32;20383;-66
2021/04/01 09:41:36;;;;;;;2.30;0.82;;;7.80;93.20;;;;;;5934046;32;20074;-67
2021/04/01 09:45:40;;;;;;;;;;;8.20;92.90;;;;;;5933661;32;20764;-67
2021/04/01 09:50:10;;;;;;;3.75;0.70;;;8.80;94.80;;;;;;5940733;32;19948;-68
2021/04/01 09:54:20;;;;;;;1.02;0.65;;;8.20;93.00;;;;;;5937499;32;20104;-66
2021/04/01 09:58:39;;;;;;;2.28;0.50;;;8.20;92.20;;;;;;5923282;32;20068;-65
2021/04/01 10:03:05;;;;;;;0.85;0.50;;;8.30;91.90;;;;;;5928868;32;20124;-67
2021/04/01 10:07:15;;;;;;;0.63;0.25;;;8.40;91.20;;;;;;5919576;32;21289;-71
2021/04/01 10:11:27;;;;;;;4.13;0.75;;;8.50;91.70;;;;;;5925104;32;20296;-71
2021/04/01 10:15:32;;;;;;;2.70;0.70;;;8.00;90.70;;;;;;5928368;32;20065;-72
2021/04/01 10:19:55;;;;;;;1.85;0.70;;;8.60;90.60;;;;;;5922387;32;20191;-72
2021/04/01 10:23:59;;;;;;;2.05;0.68;;;8.50;90.40;;;;;;5936253;32;20088;-72
2021/04/01 10:28:12;;;;;;;2.72;0.60;;;8.80;90.00;;;;;;5921391;32;20731;-71
2021/04/01 10:32:41;;;;;;;2.25;0.60;;;8.60;89.60;;;;;;5934246;39;20190;-71
2021/04/01 10:36:49;;;;;;;2.72;0.90;;;8.90;89.30;;;;;;5915260;32;20079;-72
2021/04/01 10:40:55;;;;;;;1.48;0.52;;;8.70;88.40;;;;;;5921227;32;20119;-71
2021/04/01 10:45:15;;;;;;;2.33;0.95;;;9.10;88.80;;;;;;5920645;32;20076;-71
2021/04/01 10:49:25;;;;;;;4.93;0.65;;;9.20;88.40;;;;;;5933894;32;20092;-72
2021/04/01 10:53:31;;;;;;;2.70;0.80;;;9.20;87.30;;;;;;5931581;32;20193;-71
2021/04/01 10:57:35;;;;;;;1.95;0.77;;;9.60;87.10;;;;;;5923972;32;20068;-72
2021/04/01 11:01:42;;;;;;;3.42;0.70;;;9.60;86.40;;;;;;5927471;32;20064;-72
2021/04/01 11:05:49;;;;;;;1.88;0.43;;;9.60;86.80;;;;;;5936241;32;20064;-74
2021/04/01 11:10:01;;;;;;;2.00;0.73;;;10.20;86.10;;;;;;5939907;32;20422;-72
2021/04/01 11:14:06;;;;;;;4.30;0.93;;;9.80;86.40;;;;;;5909723;32;20115;-71
2021/04/01 11:18:16;;;;;;;3.90;1.00;;;10.40;85.20;;;;;;5933066;32;20075;-71
2021/04/01 11:22:23;;;;;;;1.95;0.82;;;10.30;83.80;;;;;;5930377;32;20139;-67
2021/04/01 11:26:28;;;;;;;1.85;0.50;;;10.10;83.90;;;;;;5915841;32;20403;-67
2021/04/01 11:31:01;;;;;;;1.92;0.70;;;10.10;83.80;;;;;;5929245;32;20734;-67
2021/04/01 11:35:06;;;;;;;2.17;0.82;;;10.10;82.90;;;;;;5929614;32;20469;-67
2021/04/01 11:39:24;;;;;;;1.55;0.60;;;10.10;83.30;;;;;;5934334;32;20296;-67
2021/04/01 11:43:31;;;;;;;3.17;0.70;;;10.10;82.50;;;;;;5931811;32;20091;-67
2021/04/01 11:47:36;;;;;;;6.10;1.25;;;13.20;85.00;;;;;;5940098;32;20068;-67
2021/04/01 11:51:46;;;;;;;3.35;0.88;;;10.20;83.20;;;;;;5944617;32;20210;-66
2021/04/01 11:55:52;;;;;;;2.22;0.68;;;10.20;82.80;;;;;;5938872;32;20151;-67
2021/04/01 12:00:53;;;;;;;0.73;0.32;;;10.60;82.90;;;;;;5924873;32;20408;-65
2021/04/01 12:04:42;;;;;;;2.25;0.73;;;10.20;82.00;;;;;;5921048;32;20065;-66
2021/04/01 12:08:49;;;;;;;4.13;0.82;;;10.10;82.50;;;;;;5940139;32;20303;-67
2021/04/01 12:12:57;;;;;;;3.28;0.90;;;10.10;83.40;;;;;;5933669;32;20079;-66
2021/04/01 12:17:03;;;;;;;1.80;0.88;;;10.20;82.30;;;;;;5934062;32;20068;-67
2021/04/01 12:21:13;;;;;;;2.05;0.70;;;10.10;82.80;;;;;;5940809;32;20395;-66
2021/04/01 12:25:18;;;;;;;2.90;0.60;;;10.10;82.80;;;;;;5938195;32;20167;-66
2021/04/01 12:29:26;;;;;;;0.77;0.32;;;10.20;80.70;;;;;;5940758;32;20088;-67
2021/04/01 12:33:31;;;;;;;1.45;0.50;;;10.10;81.20;;;;;;5943812;32;20063;-67
2021/04/01 12:37:38;;;;;;;1.35;0.70;;;10.00;80.90;;;;;;5932467;32;20100;-67
2021/04/01 12:41:49;;;;;;;1.80;0.57;;;10.20;81.40;;;;;;5934480;32;20395;-67
2021/04/01 12:45:57;;;;;;;1.10;0.50;;;10.20;80.60;;;;;;5940440;32;20095;-67
2021/04/01 12:50:01;;;;;;;2.17;0.70;;;10.20;79.40;;;;;;5940708;32;20162;-67
2021/04/01 12:54:07;;;;;;;1.15;0.70;;;10.20;80.80;;;;;;5922898;32;20084;-67
2021/04/01 12:58:32;;;;;;;3.25;1.00;;;10.30;81.00;;;;;;5939442;39;20056;-67
2021/04/01 13:02:40;;;;;;;4.57;1.05;;;10.30;81.30;;;;;;5927226;32;20194;-67
2021/04/01 13:11:11;;;;;;;7.40;1.10;;;10.20;82.90;;;;;;5938439;32;20954;-67
2021/04/01 13:15:18;;;;;;;8.15;1.08;;;10.10;82.80;;;;;;5941068;32;20089;-67
2021/04/01 13:19:22;;;;;;;4.43;1.10;;;10.20;82.50;;;;;;5930782;32;20201;-66
2021/04/01 13:23:58;;;;;;;3.08;1.25;;;10.30;81.40;;;;;;5927795;32;20065;-65
2021/04/01 13:27:57;;;;;;;4.07;1.13;;;10.40;80.70;;;;;;5936285;32;20159;-65
2021/04/01 13:32:13;;;;;;;1.58;0.50;;;10.30;81.80;;;;;;5924329;39;20103;-67
2021/04/01 13:36:38;;;;;;;3.22;1.10;;;10.10;81.50;;;;;;5919787;32;20079;-65
2021/04/01 13:40:44;;;;;;;2.45;0.57;;;9.90;82.40;;;;;;5926073;32;20061;-66
2021/04/01 13:44:54;;;;;;;3.08;0.80;;;10.00;81.60;;;;;;5933195;32;20512;-67
2021/04/01 13:48:58;;;;;;;3.88;0.70;;;10.10;81.40;;;;;;5939315;32;20339;-67
2021/04/01 13:53:47;;;;;;;1.45;0.35;;;10.30;81.10;;;;;;5930952;32;20135;-66
2021/04/01 13:57:55;;;;;;;3.05;1.10;;;10.30;80.00;;;;;;5908967;32;20376;-67
2021/04/01 14:11:15;;;;;;;2.92;0.60;;;10.30;81.10;;;;;;5940895;32;20126;-67
2021/04/01 14:15:19;;;;;;;4.20;0.82;;;10.40;80.40;;;;;;5925376;32;20151;-67
2021/04/01 14:19:25;;;;;;;3.53;0.60;;;10.50;80.00;;;;;;5931067;32;20099;-67
2021/04/01 14:23:31;;;;;;;4.38;0.60;;;10.60;80.20;;;;;;5941270;32;20083;-67
2021/04/01 14:27:41;;;;;;;3.50;0.70;;;10.50;79.10;;;;;;5927004;39;20079;-67
2021/04/01 14:31:48;;;;;;;1.13;0.63;;;10.40;79.90;;;;;;5938530;32;20076;-67
2021/04/01 14:35:57;;;;;;;1.48;0.70;;;10.30;79.30;;;;;;5929700;32;20070;-67
2021/04/01 14:40:07;;;;;;;4.55;0.80;;;10.20;79.00;;;;;;5939017;32;20161;-68
2021/04/01 14:44:18;;;;;;;1.52;0.40;;;10.20;78.30;;;;;;5938699;32;20153;-68
2021/04/01 14:48:28;;;;;;;1.25;0.50;;;10.10;78.40;;;;;;5936639;32;20526;-68
2021/04/01 14:52:42;;;;;;;3.80;0.80;;;10.00;76.60;;;;;;5927311;32;20078;-68
2021/04/01 14:56:53;;;;;;;1.52;0.80;;;10.10;77.70;;;;;;5928912;39;20087;-67
2021/04/01 15:00:58;;;;;;;3.20;0.60;;;10.10;78.00;;;;;;5926716;32;20072;-68
2021/04/01 15:05:03;;;;;;;1.33;0.32;;;9.70;77.80;;;;;;5941306;32;20507;-68
2021/04/01 15:09:11;;;;;;;2.15;0.60;;;10.10;74.10;;;;;;5916844;32;20072;-68
2021/04/01 15:13:15;;;;;;;2.72;0.70;;;9.90;77.00;;;;;;5937591;32;20103;-68
2021/04/01 15:17:24;;;;;;;1.10;0.50;;;9.80;77.80;;;;;;5920710;32;20073;-68
2021/04/01 15:21:32;;;;;;;2.30;0.50;;;9.90;77.60;;;;;;5933119;32;20420;-68
2021/04/01 15:25:36;;;;;;;1.38;0.43;;;9.80;77.30;;;;;;5930872;32;20073;-68
2021/04/01 15:29:40;;;;;;;5.18;0.60;;;9.80;77.70;;;;;;5937236;32;20315;-67
2021/04/01 15:33:48;;;;;;;4.80;0.73;;;9.70;77.50;;;;;;5942186;32;20432;-68
2021/04/01 15:37:55;;;;;;;2.80;0.90;;;9.70;77.90;;;;;;5931009;32;20130;-67
2021/04/01 15:42:04;;;;;;;1.35;0.50;;;9.70;78.10;;;;;;5940064;32;20163;-67
2021/04/01 15:46:11;;;;;;;1.70;0.40;;;9.60;77.60;;;;;;5933459;32;20076;-68
2021/04/01 15:50:15;;;;;;;2.97;0.43;;;9.60;77.90;;;;;;5917064;32;141106;-68
2021/04/01 15:54:21;;;;;;;2.47;0.60;;;9.60;78.10;;;;;;5928681;39;20068;-69
2021/04/01 15:58:27;;;;;;;2.25;0.60;;;9.50;76.90;;;;;;5929598;32;20108;-70
2021/04/01 16:02:32;;;;;;;0.95;0.50;;;9.50;77.00;;;;;;5931407;32;20102;-67
2021/04/01 16:06:37;;;;;;;3.00;0.75;;;9.50;76.90;;;;;;5931591;39;20064;-74
2021/04/01 16:10:41;;;;;;;1.25;0.60;;;9.40;76.90;;;;;;5938216;32;20068;-68
2021/04/01 16:14:46;;;;;;;3.22;1.00;;;9.40;77.40;;;;;;5920946;32;20168;-69
2021/04/01 16:18:50;;;;;;;1.92;0.85;;;9.30;77.60;;;;;;5929444;32;20064;-66
2021/04/01 16:22:55;;;;;;;1.75;0.60;;;9.30;77.70;;;;;;5929392;32;20064;-67
2021/04/01 16:26:57;;;;;;;3.78;0.75;;;9.30;77.40;;;;;;5940162;32;20072;-67
2021/04/01 16:31:02;;;;;;;2.53;0.63;;;9.20;77.30;;;;;;5917953;39;20076;-66
2021/04/01 16:35:07;;;;;;;2.70;0.80;;;9.30;77.90;;;;;;5929668;32;20147;-67
2021/04/01 16:39:12;;;;;;;3.22;0.90;;;9.20;78.10;;;;;;5928336;32;20090;-67
2021/04/01 16:43:22;;;;;;;2.22;0.95;;;9.20;78.10;;;;;;5919378;32;20517;-66
2021/04/01 16:47:27;;;;;;;2.58;0.60;;;9.20;78.10;;;;;;5938800;32;20146;-67
2021/04/01 16:51:32;;;;;;;3.17;0.90;;;9.10;77.90;;;;;;5923224;39;20500;-68
2021/04/01 16:55:34;;;;;;;;;;;9.10;78.40;;;;;;5929431;32;20098;-67
2021/04/01 16:59:41;;;;;;;5.45;1.02;;;9.10;78.00;;;;;;5926174;32;19951;-67
2021/04/01 17:03:49;;;;;;;3.30;0.93;;;9.00;79.10;;;;;;5934602;32;20072;-66
2021/04/01 17:07:55;;;;;;;3.47;0.80;;;8.30;78.70;;;;;;5938401;32;20082;-68
2021/04/01 17:12:03;;;;;;;4.00;0.98;;;8.90;79.20;;;;;;5925486;32;20068;-68
2021/04/01 17:16:07;;;;;;;2.65;0.80;;;8.90;79.60;;;;;;5941143;32;20088;-67
2021/04/01 17:20:16;;;;;;;2.83;1.15;;;8.90;79.80;;;;;;5938517;32;20360;-67
2021/04/01 17:24:21;;;;;;;3.78;1.15;;;8.70;80.00;;;;;;5925582;32;20071;-67
2021/04/01 17:28:25;;;;;;;5.47;1.95;;;8.80;80.10;;;;;;5918364;32;20552;-68
2021/04/01 17:32:29;;;;;;;6.57;2.38;;;8.80;80.20;;;;;;5924395;32;20316;-67
2021/04/01 17:36:34;;;;;;;4.47;2.25;;;8.80;80.50;;;;;;5935946;32;20072;-67
2021/04/01 17:40:41;;;;;;;3.08;1.40;;;8.60;80.60;;;;;;5919979;32;20159;-67
2021/04/01 17:44:46;;;;;;;2.55;0.80;;;8.60;80.80;;;;;;5935884;32;20412;-67
2021/04/01 17:48:47;;;;;;;3.40;1.50;;;8.60;80.80;;;;;;5932708;32;20080;-66
2021/04/01 17:52:51;;;;;;;3.40;1.35;;;8.60;80.90;;;;;;5938537;32;20395;-67
2021/04/01 17:56:56;;;;;;;4.20;1.73;;;8.50;81.10;;;;;;5931064;32;20079;-67
2021/04/01 18:23:05;;;;;;;4.03;1.30;;;8.50;81.90;;;;;;5926295;32;20064;-67
2021/04/01 18:31:38;;;;;;;3.55;1.70;;;8.40;81.40;;;;;;5914867;32;20572;-67
2021/04/01 18:35:51;;;;;;;5.90;1.67;;;8.40;81.50;;;;;;5909607;32;20069;-67
2021/04/01 18:40:21;;;;;;;5.03;2.00;;;8.30;81.60;;;;;;5919077;32;20080;-70
2021/04/01 18:44:36;;;;;;;3.90;1.75;;;8.30;82.90;;;;;;5909651;32;20065;-71
2021/04/01 18:48:46;;;;;;;3.42;1.65;;;8.00;81.90;;;;;;5869857;40;20185;-70
2021/04/01 18:52:52;;;;;;;4.00;1.83;;;8.10;81.80;;;;;;5832981;32;20078;-70
2021/04/01 18:57:05;;;;;;;6.75;2.50;;;8.10;82.00;;;;;;5867216;40;20407;-71
2021/04/01 19:01:20;;;;;;;5.55;2.35;;;8.00;81.90;;;;;;5846962;32;20154;-70
2021/04/01 19:05:29;;;;;;;5.47;2.53;;;8.00;82.00;;;;;;5849592;32;20131;-70
2021/04/01 19:09:50;;;;;;;7.93;3.05;;;7.80;81.90;;;;;;5846743;32;20067;-71
2021/04/01 19:20:29;;;;;;;6.65;3.40;;;7.90;82.20;;;;;;5856626;32;20106;-71
2021/04/01 19:22:56;;;;;;;6.53;3.60;;;7.60;82.10;;;;;;5856062;32;20370;-69
2021/04/01 19:27:01;;;;;;;8.82;3.72;;;7.50;82.20;;;;;;5864141;32;20491;-69
2021/04/01 19:31:05;;;;;;;7.03;3.80;;;7.50;82.30;;;;;;5851012;32;20590;-71
2021/04/01 19:35:10;;;;;;;9.05;4.25;;;7.40;82.50;;;;;;5860339;32;20086;-70
2021/04/01 19:39:15;;;;;;;8.77;5.07;;;7.30;82.60;;;;;;5861036;32;20417;-70
2021/04/01 19:43:21;;;;;;;7.60;3.85;;;7.20;82.60;;;;;;5843296;32;20066;-69
2021/04/01 19:47:28;;;;;;;6.88;4.55;;;7.30;82.80;;;;;;5858515;32;20114;-70
2021/04/01 19:51:34;;;;;;;9.68;5.18;;;7.10;82.70;;;;;;5853444;32;20087;-69
2021/04/01 19:55:38;;;;;;;10.18;4.90;;;7.00;82.90;;;;;;5849355;32;20082;-69
2021/04/01 19:59:47;;;;;;;10.55;5.20;;;6.90;82.90;;;;;;5843853;32;20066;-70
2021/04/01 20:03:51;;;;;;;7.93;5.05;;;6.80;82.80;;;;;;5838516;32;20063;-70
2021/04/01 20:07:54;;;;;;;10.10;4.18;;;6.80;83.00;;;;;;5848220;32;20086;-70
2021/04/01 20:12:03;;;;;;;6.63;3.47;;;6.70;83.10;;;;;;5850977;32;20108;-69
2021/04/01 20:16:08;;;;;;;6.25;2.95;;;6.60;83.00;;;;;;5851635;32;20082;-70
2021/04/01 20:20:14;;;;;;;6.00;2.67;;;6.50;83.10;;;;;;5860580;32;20089;-70
2021/04/01 20:24:17;;;;;;;6.28;2.75;;;6.50;83.40;;;;;;5861075;32;20361;-70
2021/04/01 20:28:26;;;;;;;4.68;2.40;;;6.40;83.50;;;;;;5860463;32;20164;-70
2021/04/01 20:32:31;;;;;;;6.95;2.88;;;6.30;83.10;;;;;;5859674;32;20066;-68
2021/04/01 20:36:36;;;;;;;7.22;2.20;;;6.30;83.30;;;;;;5862737;32;20127;-69
2021/04/01 20:40:41;;;;;;;6.50;2.53;;;6.20;83.50;;;;;;5837803;32;20180;-67
2021/04/01 20:44:46;;;;;;;5.65;2.53;;;5.70;83.00;;;;;;5842499;40;20441;-68
2021/04/01 20:48:50;;;;;;;8.40;3.95;;;6.00;83.40;;;;;;5844992;32;20261;-68
2021/04/01 20:52:56;;;;;;;10.65;3.80;;;6.00;83.50;;;;;;5845385;32;20089;-70
2021/04/01 20:57:00;;;;;;;7.60;3.45;;;6.00;83.60;;;;;;5841082;33;20141;-67
2021/04/01 21:01:04;;;;;;;6.87;3.40;;;6.10;83.80;;;;;;5848540;32;20082;-68
2021/04/01 21:05:10;;;;;;;6.40;3.00;;;5.90;83.50;;;;;;5857717;32;22339;-70
2021/04/01 21:09:11;;;;;;;;;;;5.80;83.70;;;;;;5853600;32;20063;-70
2021/04/01 21:13:16;;;;;;;6.38;3.65;;;5.50;82.60;;;;;;5858355;32;19965;-68
2021/04/01 21:17:20;;;;;;;7.47;3.80;;;5.70;83.40;;;;;;5857262;32;20066;-68
2021/04/01 21:21:26;;;;;;;6.47;4.10;;;5.70;83.50;;;;;;5840476;32;20086;-69
2021/04/01 21:25:33;;;;;;;6.05;3.17;;;5.70;83.80;;;;;;5849447;32;20070;-68
2021/04/01 21:29:37;;;;;;;6.63;3.20;;;5.60;83.70;;;;;;5852319;32;20062;-67
2021/04/01 21:33:44;;;;;;;6.68;3.30;;;5.60;83.60;;;;;;5851124;32;20357;-68
2021/04/01 21:37:57;;;;;;;6.20;3.58;;;5.50;83.60;;;;;;5857630;40;20413;-67
2021/04/01 21:42:01;;;;;;;8.00;4.13;;;5.50;83.60;;;;;;5850175;32;20054;-67
2021/04/01 21:46:06;;;;;;;7.88;3.80;;;5.40;83.50;;;;;;5854251;32;20086;-69
2021/04/01 21:50:25;;;;;;;8.73;3.97;;;5.40;83.50;;;;;;5852601;32;20071;-67
2021/04/01 21:54:29;;;;;;;8.27;4.00;;;5.30;83.90;;;;;;5855319;32;20184;-68
2021/04/01 21:58:34;;;;;;;11.48;4.28;;;5.30;83.70;;;;;;5850263;32;20067;-67
2021/04/01 22:02:39;;;;;;;8.30;3.90;;;5.20;83.60;;;;;;5847955;32;20078;-69
2021/04/01 22:06:43;;;;;;;5.80;3.75;;;5.20;83.50;;;;;;5853020;32;20074;-68
2021/04/01 22:11:03;;;;;;;8.55;4.82;;;5.10;83.50;;;;;;5853121;32;21066;-67
2021/04/01 22:15:10;;;;;;;8.23;5.03;;;5.00;83.70;;;;;;5851887;32;20093;-67
2021/04/01 22:19:17;;;;;;;10.23;5.25;;;5.00;85.20;;;;;;5848137;32;20071;-67
2021/04/01 22:23:25;;;;;;;7.18;4.43;;;4.90;83.70;;;;;;5856561;40;20066;-68
2021/04/01 22:27:32;;;;;;;7.50;4.22;;;4.80;83.80;;;;;;5853153;32;20082;-68
2021/04/01 22:31:36;;;;;;;6.32;3.47;;;4.70;83.90;;;;;;5857918;32;20366;-65
2021/04/01 22:35:44;;;;;;;5.60;3.40;;;4.70;83.90;;;;;;5849217;32;20192;-65
2021/04/01 22:39:48;;;;;;;5.80;2.40;;;4.60;83.90;;;;;;5840021;32;20062;-70
2021/04/01 22:43:59;;;;;;;5.95;1.98;;;4.60;83.80;;;;;;5835744;32;20112;-70
2021/04/01 22:48:09;;;;;;;5.70;2.10;;;4.40;83.60;;;;;;5845600;32;20089;-70
2021/04/01 22:52:13;;;;;;;6.97;2.30;;;4.50;84.20;;;;;;5843502;32;20074;-66
2021/04/01 22:56:22;;;;;;;5.13;2.47;;;4.50;84.30;;;;;;5842827;32;20090;-68
2021/04/01 23:00:38;;;;;;;3.65;1.70;;;4.50;85.10;;;;;;5838071;32;20074;-65
2021/04/01 23:04:44;;;;;;;5.40;2.00;;;4.50;84.60;;;;;;5835828;32;20089;-67
2021/04/01 23:08:49;;;;;;;5.20;2.08;;;4.50;84.50;;;;;;5853444;32;20072;-68
2021/04/01 23:12:53;;;;;;;6.85;2.00;;;4.50;84.20;;;;;;5857813;32;20082;-67
2021/04/01 23:16:57;;;;;;;4.25;1.67;;;4.40;84.70;;;;;;5858722;32;20570;-67
2021/04/01 23:20:58;;;;;;;6.13;2.33;;;4.30;83.80;;;;;;5857210;32;20082;-67
2021/04/01 23:25:11;;;;;;;3.65;1.75;;;4.40;83.50;;;;;;5855992;32;20173;-67
2021/04/01 23:29:15;;;;;;;;;;;4.30;83.50;;;;;;5849626;32;20074;-67
2021/04/01 23:33:19;;;;;;;3.22;1.42;;;4.50;84.00;;;;;;5841116;32;20013;-70
2021/04/01 23:37:23;;;;;;;3.67;1.30;;;4.30;84.30;;;;;;5845832;32;20473;-67
2021/04/01 23:41:31;;;;;;;6.80;1.73;;;4.50;84.30;;;;;;5846065;32;20070;-69
2021/04/01 23:45:40;;;;;;;4.07;1.40;;;4.20;83.50;;;;;;5843527;32;20159;-71